createdAt,value
2022-10-13T00:00:14.740Z,12.07
2022-10-13T00:02:42.228Z,12.40
2022-10-13T00:05:10.440Z,11.77
2022-10-13T00:07:38.451Z,11.57
2022-10-13T00:10:06.295Z,11.70
2022-10-13T00:12:36.722Z,12.60
2022-10-13T00:15:06.755Z,12.17
2022-10-13T00:17:36.289Z,12.57
2022-10-13T00:20:03.945Z,13.00
2022-10-13T00:22:31.641Z,12.77
2022-10-13T00:24:59.212Z,13.00
2022-10-13T00:27:26.828Z,12.87
2022-10-13T00:29:55.729Z,13.27
2022-10-13T00:32:23.280Z,13.83
2022-10-13T00:34:50.857Z,13.33
2022-10-13T00:37:20.331Z,13.90
2022-10-13T00:39:47.902Z,13.60
2022-10-13T00:42:16.203Z,12.53
2022-10-13T00:45:00.297Z,14.27
2022-10-13T00:47:29.246Z,13.17
2022-10-13T00:49:57.034Z,14.07
2022-10-13T00:52:26.101Z,14.00
2022-10-13T00:54:55.213Z,13.80
2022-10-13T00:57:23.627Z,12.43
2022-10-13T00:59:51.669Z,12.93
2022-10-13T01:02:21.064Z,13.90
2022-10-13T01:04:51.156Z,13.30
2022-10-13T01:07:20.575Z,13.80
2022-10-13T01:09:48.109Z,13.43
2022-10-13T01:12:22.381Z,14.13
2022-10-13T01:14:53.904Z,14.33
2022-10-13T01:17:27.022Z,13.83
2022-10-13T01:20:11.172Z,13.53
2022-10-13T01:22:48.636Z,14.13
2022-10-13T01:25:25.750Z,12.63
2022-10-13T01:28:02.237Z,14.10
2022-10-13T01:30:33.516Z,14.33
2022-10-13T01:33:23.252Z,13.80
2022-10-13T01:35:56.695Z,14.03
2022-10-13T01:38:27.612Z,14.20
2022-10-13T01:41:00.491Z,13.63
2022-10-13T01:43:29.798Z,13.70
2022-10-13T01:46:03.249Z,13.90
2022-10-13T01:48:30.992Z,13.37
2022-10-13T01:50:59.876Z,13.47
2022-10-13T01:53:28.217Z,12.67
2022-10-13T01:55:56.910Z,13.93
2022-10-13T01:58:24.825Z,13.17
2022-10-13T02:00:57.883Z,13.03
2022-10-13T02:03:31.312Z,13.80
2022-10-13T02:06:00.696Z,13.60
2022-10-13T02:08:38.815Z,14.10
2022-10-13T02:11:11.539Z,13.93
2022-10-13T02:13:40.868Z,13.83
2022-10-13T02:16:11.142Z,13.47
2022-10-13T02:18:40.149Z,13.33
2022-10-13T02:21:10.786Z,13.70
2022-10-13T02:23:38.340Z,13.40
2022-10-13T02:26:06.116Z,14.03
2022-10-13T02:28:34.296Z,13.83
2022-10-13T02:31:02.861Z,13.03
2022-10-13T02:33:30.432Z,14.40
2022-10-13T02:35:59.849Z,14.23
2022-10-13T02:38:27.438Z,13.97
2022-10-13T02:40:55.560Z,13.97
2022-10-13T02:43:24.188Z,13.73
2022-10-13T02:45:51.796Z,13.43
2022-10-13T02:48:19.368Z,13.90
2022-10-13T02:50:47.308Z,14.13
2022-10-13T02:53:16.265Z,13.53
2022-10-13T02:55:43.843Z,14.37
2022-10-13T02:58:11.482Z,15.13
2022-10-13T03:00:39.628Z,14.87
2022-10-13T03:03:07.366Z,14.43
2022-10-13T03:05:34.985Z,15.23
2022-10-13T03:08:02.872Z,14.40
2022-10-13T03:10:32.046Z,14.93
2022-10-13T03:12:59.763Z,15.83
2022-10-13T03:15:27.361Z,14.97
2022-10-13T03:17:56.739Z,15.57
2022-10-13T03:20:24.276Z,15.00
2022-10-13T03:22:52.681Z,15.57
2022-10-13T03:25:20.252Z,15.23
2022-10-13T03:27:49.201Z,15.83
2022-10-13T03:30:16.816Z,16.20
2022-10-13T03:32:44.478Z,15.13
2022-10-13T03:35:12.051Z,16.13
2022-10-13T03:37:39.711Z,16.53
2022-10-13T03:40:07.913Z,16.23
2022-10-13T03:42:36.342Z,16.07
2022-10-13T03:45:05.816Z,15.97
2022-10-13T03:47:36.695Z,16.97
2022-10-13T03:50:05.130Z,17.67
2022-10-13T03:52:33.013Z,17.10
2022-10-13T03:55:00.617Z,16.30
2022-10-13T03:57:28.186Z,16.97
2022-10-13T03:59:57.434Z,16.37
2022-10-13T04:02:28.887Z,15.37
2022-10-13T04:04:58.887Z,15.47
2022-10-13T04:07:26.434Z,15.37
2022-10-13T04:09:54.017Z,16.20
2022-10-13T04:12:21.600Z,15.30
2022-10-13T04:14:49.247Z,15.53
2022-10-13T04:17:16.817Z,15.90
2022-10-13T04:19:45.872Z,15.53
2022-10-13T04:22:13.452Z,15.57
2022-10-13T04:24:42.001Z,16.17
2022-10-13T04:27:10.082Z,15.40
2022-10-13T04:29:37.636Z,16.17
2022-10-13T04:32:05.417Z,16.57
2022-10-13T04:34:32.956Z,15.27
2022-10-13T04:37:02.087Z,15.83
2022-10-13T04:39:29.649Z,15.93
2022-10-13T04:41:57.700Z,15.67
2022-10-13T04:44:25.241Z,16.00
2022-10-13T04:46:52.804Z,15.67
2022-10-13T04:49:20.365Z,14.83
2022-10-13T04:51:47.937Z,15.83
2022-10-13T04:54:17.004Z,14.83
2022-10-13T04:56:45.416Z,15.43
2022-10-13T04:59:13.108Z,15.13
2022-10-13T05:01:41.013Z,15.23
2022-10-13T05:04:14.052Z,16.10
2022-10-13T05:06:59.230Z,15.87
2022-10-13T05:09:31.525Z,15.37
2022-10-13T05:11:59.111Z,15.03
2022-10-13T05:14:26.660Z,15.50
2022-10-13T05:16:54.229Z,15.83
2022-10-13T05:19:21.781Z,15.20
2022-10-13T05:21:50.001Z,14.77
2022-10-13T05:24:17.594Z,14.47
2022-10-13T05:26:49.437Z,14.43
2022-10-13T05:29:18.252Z,15.63
2022-10-13T05:31:45.797Z,15.83
2022-10-13T05:34:13.370Z,14.97
2022-10-13T05:36:40.906Z,15.83
2022-10-13T05:39:08.497Z,15.40
2022-10-13T05:41:36.060Z,15.00
2022-10-13T05:44:11.789Z,15.57
2022-10-13T05:46:47.239Z,15.10
2022-10-13T05:49:14.825Z,16.07
2022-10-13T05:51:43.895Z,15.03
2022-10-13T05:54:13.560Z,16.33
2022-10-13T05:56:42.739Z,16.33
2022-10-13T05:59:11.936Z,15.07
2022-10-13T06:01:41.423Z,15.27
2022-10-13T06:04:10.443Z,16.50
2022-10-13T06:06:38.416Z,14.93
2022-10-13T06:09:05.951Z,16.17
2022-10-13T06:11:33.521Z,16.07
2022-10-13T06:14:01.068Z,15.33
2022-10-13T06:16:28.699Z,14.20
2022-10-13T06:18:59.140Z,15.43
2022-10-13T06:21:26.704Z,16.43
2022-10-13T06:23:54.281Z,15.73
2022-10-13T06:26:21.826Z,15.27
2022-10-13T06:28:51.175Z,16.00
2022-10-13T06:31:22.712Z,15.77
2022-10-13T06:33:50.277Z,15.23
2022-10-13T06:36:19.220Z,15.20
2022-10-13T06:38:46.967Z,15.83
2022-10-13T06:41:16.064Z,16.77
2022-10-13T06:43:43.815Z,16.00
2022-10-13T06:46:11.985Z,16.23
2022-10-13T06:48:39.540Z,15.53
2022-10-13T06:51:08.652Z,16.30
2022-10-13T06:53:37.872Z,15.53
2022-10-13T06:56:06.514Z,15.57
2022-10-13T06:58:35.225Z,16.23
2022-10-13T07:01:03.053Z,15.13
2022-10-13T07:03:30.720Z,15.43
2022-10-13T07:06:01.524Z,15.40
2022-10-13T07:08:29.105Z,15.70
2022-10-13T07:10:58.188Z,15.43
2022-10-13T07:13:25.728Z,15.70
2022-10-13T07:15:53.296Z,15.93
2022-10-13T07:18:20.842Z,15.83
2022-10-13T07:20:48.402Z,14.13
2022-10-13T07:23:15.988Z,15.50
2022-10-13T07:25:43.537Z,14.63
2022-10-13T07:28:12.511Z,14.67
2022-10-13T07:30:40.339Z,14.90
2022-10-13T07:33:08.519Z,15.50
2022-10-13T07:35:38.925Z,14.70
2022-10-13T07:38:06.861Z,14.90
2022-10-13T07:40:34.650Z,14.70
2022-10-13T07:43:02.755Z,14.33
2022-10-13T07:45:31.726Z,14.30
2022-10-13T07:47:59.265Z,14.40
2022-10-13T07:50:26.825Z,13.53
2022-10-13T07:52:54.400Z,14.90
2022-10-13T07:55:21.956Z,15.10
2022-10-13T07:57:54.989Z,14.17
2022-10-13T08:00:22.636Z,13.63
2022-10-13T08:02:51.811Z,14.37
2022-10-13T08:05:19.403Z,14.57
2022-10-13T08:07:47.049Z,14.93
2022-10-13T08:10:15.209Z,15.83
2022-10-13T08:12:42.742Z,15.73
2022-10-13T08:15:10.918Z,15.27
2022-10-13T08:17:38.473Z,14.73
2022-10-13T08:20:08.136Z,16.20
2022-10-13T08:22:35.696Z,14.50
2022-10-13T08:25:03.273Z,14.83
2022-10-13T08:27:49.668Z,14.50
2022-10-13T08:30:18.304Z,14.93
2022-10-13T08:32:45.904Z,15.33
2022-10-13T08:35:14.866Z,14.37
2022-10-13T08:37:42.415Z,14.37
2022-10-13T08:40:12.937Z,13.97
2022-10-13T08:42:44.057Z,13.10
2022-10-13T08:45:39.893Z,14.80
2022-10-13T08:48:05.182Z,17.40
2022-10-13T08:50:35.739Z,16.37
2022-10-13T08:53:04.409Z,16.37
2022-10-13T08:55:34.231Z,16.80
2022-10-13T08:58:02.731Z,17.17
2022-10-13T09:00:30.725Z,16.63
2022-10-13T09:03:01.568Z,17.27
2022-10-13T09:05:32.405Z,16.40
2022-10-13T09:08:09.453Z,16.57
2022-10-13T09:10:46.937Z,16.30
2022-10-13T09:13:18.206Z,16.83
2022-10-13T09:15:46.233Z,16.53
2022-10-13T09:18:15.070Z,16.20
2022-10-13T09:20:42.677Z,16.23
2022-10-13T09:23:18.694Z,16.23
2022-10-13T09:25:48.305Z,15.93
2022-10-13T09:28:17.702Z,15.77
2022-10-13T09:30:46.952Z,15.83
2022-10-13T09:33:22.371Z,16.00
2022-10-13T09:35:50.663Z,15.47
2022-10-13T09:38:20.843Z,15.00
2022-10-13T09:40:59.897Z,15.63
2022-10-13T09:43:32.041Z,15.60
2022-10-13T09:46:00.248Z,16.13
2022-10-13T09:48:29.292Z,16.20
2022-10-13T09:50:57.956Z,15.37
2022-10-13T09:53:31.129Z,15.13
2022-10-13T09:56:09.429Z,14.77
2022-10-13T09:58:38.335Z,16.23
2022-10-13T10:01:06.347Z,16.07
2022-10-13T10:03:35.563Z,15.30
2022-10-13T10:06:04.038Z,15.03
2022-10-13T10:08:58.158Z,15.93
2022-10-13T10:11:29.686Z,16.47
2022-10-13T10:13:57.301Z,16.23
2022-10-13T10:16:30.173Z,16.93
2022-10-13T10:19:01.053Z,17.60
2022-10-13T10:21:32.406Z,16.17
2022-10-13T10:24:03.686Z,15.80
2022-10-13T10:26:39.693Z,17.23
2022-10-13T10:29:18.144Z,14.77
2022-10-13T10:31:53.089Z,15.33
2022-10-13T10:34:32.080Z,15.63
2022-10-13T10:37:05.065Z,16.40
2022-10-13T10:39:39.520Z,16.33
2022-10-13T10:42:10.465Z,14.87
2022-10-13T10:44:39.624Z,15.97
2022-10-13T10:47:08.828Z,14.63
2022-10-13T10:49:38.241Z,15.33
2022-10-13T10:52:07.572Z,14.83
2022-10-13T10:54:46.587Z,16.10
2022-10-13T10:57:21.221Z,13.90
2022-10-13T10:59:53.264Z,15.10
2022-10-13T11:02:32.182Z,14.63
2022-10-13T11:05:05.264Z,14.50
2022-10-13T11:07:51.929Z,14.17
2022-10-13T11:10:22.428Z,13.90
2022-10-13T11:13:17.189Z,13.73
2022-10-13T11:15:46.837Z,13.77
2022-10-13T11:18:32.840Z,14.50
2022-10-13T11:21:00.507Z,13.67
2022-10-13T11:23:31.802Z,12.20
2022-10-13T11:26:15.926Z,11.97
2022-10-13T11:28:48.849Z,11.67
2022-10-13T11:31:29.771Z,9.97
2022-10-13T11:34:03.147Z,10.57
2022-10-13T11:36:32.120Z,9.87
2022-10-13T11:39:03.108Z,10.83
2022-10-13T11:41:33.145Z,10.67
2022-10-13T11:44:04.789Z,9.37
2022-10-13T11:46:38.906Z,11.10
2022-10-13T11:49:21.185Z,9.90
2022-10-13T11:52:02.105Z,10.80
2022-10-13T11:54:34.197Z,9.67
2022-10-13T11:57:01.760Z,9.73
2022-10-13T11:59:32.112Z,10.63
2022-10-13T12:02:00.649Z,9.47
2022-10-13T12:04:29.148Z,9.90
2022-10-13T12:06:58.877Z,9.90
2022-10-13T12:09:26.669Z,9.70
2022-10-13T12:11:58.021Z,8.60
2022-10-13T12:14:30.731Z,7.70
2022-10-13T12:17:00.702Z,7.70
2022-10-13T12:19:29.767Z,9.43
2022-10-13T12:21:58.666Z,8.80
2022-10-13T12:24:27.592Z,8.70
2022-10-13T12:26:55.497Z,8.83
2022-10-13T12:29:25.030Z,8.10
2022-10-13T12:31:52.936Z,8.20
2022-10-13T12:34:23.721Z,7.90
2022-10-13T12:36:58.874Z,7.70
2022-10-13T12:39:27.609Z,7.73
2022-10-13T12:41:56.145Z,7.50
2022-10-13T12:44:24.824Z,7.13
2022-10-13T12:46:53.339Z,7.43
2022-10-13T12:49:23.807Z,6.67
2022-10-13T12:51:53.217Z,6.90
2022-10-13T12:54:23.229Z,6.47
2022-10-13T12:56:55.408Z,7.33
2022-10-13T12:59:24.908Z,7.30
2022-10-13T13:01:59.766Z,8.07
2022-10-13T13:04:42.081Z,7.07
2022-10-13T13:07:29.523Z,6.63
2022-10-13T13:10:00.636Z,6.93
2022-10-13T13:12:28.883Z,7.00
2022-10-13T13:14:56.826Z,6.53
2022-10-13T13:17:52.878Z,6.67
2022-10-13T13:20:23.396Z,6.27
2022-10-13T13:22:51.741Z,6.50
2022-10-13T13:25:19.393Z,6.13
2022-10-13T13:27:47.090Z,7.50
2022-10-13T13:30:18.680Z,7.37
2022-10-13T13:32:46.468Z,6.53
2022-10-13T13:35:14.064Z,6.50
2022-10-13T13:37:44.397Z,8.20
2022-10-13T13:40:15.979Z,7.90
2022-10-13T13:42:43.701Z,8.13
2022-10-13T13:45:13.108Z,7.90
2022-10-13T13:47:40.689Z,9.27
2022-10-13T13:50:14.641Z,9.13
2022-10-13T13:52:44.300Z,9.10
2022-10-13T13:55:14.576Z,8.10
2022-10-13T13:57:43.019Z,8.20
2022-10-13T14:00:11.521Z,7.77
2022-10-13T14:02:39.796Z,7.83
2022-10-13T14:05:07.636Z,6.80
2022-10-13T14:07:35.221Z,7.00
2022-10-13T14:10:04.420Z,6.27
2022-10-13T14:12:32.454Z,7.23
2022-10-13T14:15:00.120Z,7.20
2022-10-13T14:17:28.318Z,6.97
2022-10-13T14:19:57.306Z,7.53
2022-10-13T14:22:25.255Z,7.70
2022-10-13T14:24:53.021Z,8.20
2022-10-13T14:27:22.803Z,7.67
2022-10-13T14:29:50.734Z,7.90
2022-10-13T14:32:20.167Z,8.43
2022-10-13T14:34:47.898Z,7.67
2022-10-13T14:37:17.291Z,8.90
2022-10-13T14:39:47.411Z,8.93
2022-10-13T14:42:15.013Z,8.53
2022-10-13T14:44:43.948Z,8.77
2022-10-13T14:47:11.471Z,9.20
2022-10-13T14:49:39.010Z,8.87
2022-10-13T14:52:06.704Z,7.97
2022-10-13T14:54:34.241Z,7.70
2022-10-13T14:57:05.277Z,8.07
2022-10-13T14:59:32.904Z,8.17
2022-10-13T15:02:02.125Z,8.00
2022-10-13T15:04:31.411Z,8.33
2022-10-13T15:06:59.060Z,7.37
2022-10-13T15:09:38.882Z,7.37
2022-10-13T15:12:16.664Z,7.87
2022-10-13T15:14:44.797Z,6.93
2022-10-13T15:17:13.745Z,7.10
2022-10-13T15:19:41.308Z,7.00
2022-10-13T15:22:09.741Z,7.00
2022-10-13T15:24:37.306Z,7.03
2022-10-13T15:27:04.910Z,7.10
2022-10-13T15:29:33.002Z,7.33
2022-10-13T15:32:08.080Z,7.57
2022-10-13T15:34:38.879Z,6.83
2022-10-13T15:37:06.587Z,7.07
2022-10-13T15:39:34.131Z,7.37
2022-10-13T15:42:01.700Z,7.13
2022-10-13T15:44:51.126Z,7.03
2022-10-13T15:47:18.569Z,7.70
2022-10-13T15:49:47.509Z,8.77
2022-10-13T15:52:15.164Z,9.70
2022-10-13T15:54:42.841Z,8.93
2022-10-13T15:57:10.386Z,7.93
2022-10-13T15:59:37.948Z,8.23
2022-10-13T16:02:05.487Z,8.20
2022-10-13T16:04:37.279Z,7.83
2022-10-13T16:07:06.612Z,8.70
2022-10-13T16:09:34.389Z,7.67
2022-10-13T16:12:01.919Z,8.07
2022-10-13T16:14:29.545Z,7.83
2022-10-13T16:17:01.716Z,8.20
2022-10-13T16:19:29.286Z,9.60
2022-10-13T16:21:56.880Z,9.87
2022-10-13T16:24:25.797Z,10.47
2022-10-13T16:26:53.336Z,10.57
2022-10-13T16:29:20.905Z,10.40
2022-10-13T16:31:48.460Z,9.57
2022-10-13T16:34:16.109Z,9.87
2022-10-13T16:36:43.750Z,9.73
2022-10-13T16:39:11.297Z,10.80
2022-10-13T16:41:41.469Z,9.90
2022-10-13T16:44:09.077Z,10.73
2022-10-13T16:46:36.621Z,10.30
2022-10-13T16:49:04.185Z,10.70
2022-10-13T16:51:31.712Z,9.77
2022-10-13T16:54:03.886Z,10.13
2022-10-13T16:56:32.473Z,10.50
2022-10-13T16:59:02.068Z,9.97
2022-10-13T17:01:30.626Z,8.80
2022-10-13T17:03:58.499Z,8.53
2022-10-13T17:06:27.190Z,9.03
2022-10-13T17:08:55.496Z,8.57
2022-10-13T17:11:24.231Z,9.43
2022-10-13T17:13:52.190Z,9.50
2022-10-13T17:16:21.511Z,9.47
2022-10-13T17:18:49.104Z,10.53
2022-10-13T17:21:17.809Z,10.77
2022-10-13T17:23:48.638Z,9.80
2022-10-13T17:26:17.320Z,10.33
2022-10-13T17:28:45.131Z,10.27
2022-10-13T17:31:13.475Z,9.63
2022-10-13T17:33:42.803Z,9.93
2022-10-13T17:36:13.107Z,9.60
2022-10-13T17:38:40.820Z,9.97
2022-10-13T17:41:08.796Z,9.43
2022-10-13T17:43:38.024Z,9.20
2022-10-13T17:46:34.578Z,10.60
2022-10-13T17:48:58.558Z,9.93
2022-10-13T17:51:26.303Z,9.40
2022-10-13T17:53:53.897Z,9.10
2022-10-13T17:56:22.191Z,9.00
2022-10-13T17:58:50.947Z,9.60
2022-10-13T18:01:19.782Z,9.13
2022-10-13T18:03:50.905Z,9.77
2022-10-13T18:06:20.914Z,12.20
2022-10-13T18:08:48.468Z,10.50
2022-10-13T18:11:16.986Z,12.97
2022-10-13T18:13:45.081Z,9.80
2022-10-13T18:16:14.697Z,11.43
2022-10-13T18:18:43.661Z,9.80
2022-10-13T18:21:11.858Z,10.37
2022-10-13T18:23:41.110Z,10.40
2022-10-13T18:26:09.627Z,10.13
2022-10-13T18:28:39.927Z,10.10
2022-10-13T18:31:08.338Z,9.13
2022-10-13T18:33:35.921Z,10.33
2022-10-13T18:36:12.323Z,9.77
2022-10-13T18:38:41.265Z,8.67
2022-10-13T18:41:08.876Z,9.67
2022-10-13T18:43:36.441Z,8.57
2022-10-13T18:46:04.113Z,8.37
2022-10-13T18:48:31.933Z,7.13
2022-10-13T18:51:03.284Z,8.07
2022-10-13T18:53:30.832Z,8.30
2022-10-13T18:56:07.114Z,9.10
2022-10-13T18:58:35.099Z,7.80
2022-10-13T19:01:03.401Z,7.67
2022-10-13T19:03:32.080Z,8.40
2022-10-13T19:05:59.805Z,8.73
2022-10-13T19:08:27.493Z,8.10
2022-10-13T19:10:55.028Z,8.20
2022-10-13T19:13:24.238Z,8.23
2022-10-13T19:15:51.777Z,7.53
2022-10-13T19:18:19.333Z,7.57
2022-10-13T19:20:48.912Z,7.83
2022-10-13T19:23:17.966Z,7.40
2022-10-13T19:25:45.784Z,7.37
2022-10-13T19:28:13.792Z,7.60
2022-10-13T19:30:42.773Z,7.00
2022-10-13T19:33:11.857Z,6.70
2022-10-13T19:35:48.594Z,6.80
2022-10-13T19:38:16.705Z,6.67
2022-10-13T19:40:44.698Z,6.20
2022-10-13T19:43:12.229Z,6.37
2022-10-13T19:45:46.525Z,5.50
2022-10-13T19:48:15.516Z,5.20
2022-10-13T19:50:43.481Z,5.70
2022-10-13T19:53:14.412Z,5.53
2022-10-13T19:55:42.744Z,6.03
2022-10-13T19:58:10.440Z,4.97
2022-10-13T20:00:38.081Z,5.73
2022-10-13T20:03:07.014Z,5.07
2022-10-13T20:05:37.947Z,5.30
2022-10-13T20:08:05.729Z,4.97
2022-10-13T20:10:33.798Z,4.90
2022-10-13T20:13:01.793Z,5.47
2022-10-13T20:15:29.373Z,5.33
2022-10-13T20:18:02.594Z,4.60
2022-10-13T20:20:32.629Z,4.87
2022-10-13T20:23:00.741Z,4.70
2022-10-13T20:25:28.328Z,4.93
2022-10-13T20:27:55.894Z,5.00
2022-10-13T20:30:23.502Z,4.80
2022-10-13T20:32:51.047Z,5.20
2022-10-13T20:35:18.589Z,5.30
2022-10-13T20:37:47.526Z,5.47
2022-10-13T20:40:15.089Z,5.47
2022-10-13T20:42:42.662Z,5.60
2022-10-13T20:45:12.320Z,5.10
2022-10-13T20:47:40.086Z,5.47
2022-10-13T20:50:08.526Z,5.40
2022-10-13T20:52:36.305Z,6.17
2022-10-13T20:55:05.474Z,5.33
2022-10-13T20:57:35.937Z,5.70
2022-10-13T21:00:04.302Z,5.53
2022-10-13T21:02:31.873Z,5.37
2022-10-13T21:04:59.429Z,4.97
2022-10-13T21:07:28.367Z,4.87
2022-10-13T21:09:55.916Z,4.93
2022-10-13T21:12:24.885Z,4.90
2022-10-13T21:14:52.916Z,4.70
2022-10-13T21:17:20.695Z,4.57
2022-10-13T21:19:48.357Z,5.17
2022-10-13T21:22:15.925Z,4.77
2022-10-13T21:24:44.964Z,4.70
2022-10-13T21:27:12.529Z,4.60
2022-10-13T21:29:41.457Z,5.03
2022-10-13T21:32:09.049Z,5.10
2022-10-13T21:34:36.586Z,4.70
2022-10-13T21:37:04.150Z,5.50
2022-10-13T21:39:31.701Z,5.57
2022-10-13T21:41:59.294Z,5.83
2022-10-13T21:44:28.493Z,5.70
2022-10-13T21:46:57.436Z,5.60
2022-10-13T21:49:24.988Z,6.03
2022-10-13T21:51:52.530Z,5.60
2022-10-13T21:54:20.082Z,5.33
2022-10-13T21:56:47.607Z,6.20
2022-10-13T21:59:15.677Z,6.13
2022-10-13T22:01:43.955Z,5.63
2022-10-13T22:04:15.782Z,5.50
2022-10-13T22:06:43.671Z,5.57
2022-10-13T22:09:11.267Z,5.60
2022-10-13T22:11:39.252Z,6.00
2022-10-13T22:14:15.729Z,6.23
2022-10-13T22:16:44.416Z,6.20
2022-10-13T22:19:12.064Z,5.77
2022-10-13T22:21:42.013Z,6.23
2022-10-13T22:24:11.337Z,6.83
2022-10-13T22:26:40.997Z,5.90
2022-10-13T22:29:09.300Z,6.20
2022-10-13T22:31:39.166Z,6.97
2022-10-13T22:34:10.657Z,6.27
2022-10-13T22:36:43.618Z,6.50
2022-10-13T22:39:13.835Z,6.67
2022-10-13T22:41:41.529Z,6.40
2022-10-13T22:44:09.219Z,6.20
2022-10-13T22:46:37.388Z,6.60
2022-10-13T22:49:05.096Z,6.13
2022-10-13T22:51:33.691Z,6.57
2022-10-13T22:54:01.578Z,6.63
2022-10-13T22:56:31.160Z,6.57
2022-10-13T22:58:59.486Z,6.70
2022-10-13T23:01:27.419Z,6.60
2022-10-13T23:03:55.975Z,6.83
2022-10-13T23:06:25.057Z,6.83
2022-10-13T23:08:52.654Z,6.83
2022-10-13T23:11:20.515Z,7.10
2022-10-13T23:13:49.492Z,6.90
2022-10-13T23:16:18.093Z,7.30
2022-10-13T23:18:45.653Z,7.23
2022-10-13T23:21:31.607Z,7.07
2022-10-13T23:23:59.842Z,6.90
2022-10-13T23:26:27.751Z,7.90
2022-10-13T23:28:57.732Z,7.53
2022-10-13T23:31:25.950Z,7.70
2022-10-13T23:33:53.570Z,7.73
2022-10-13T23:36:22.155Z,8.20
2022-10-13T23:38:54.440Z,8.43
2022-10-13T23:41:22.002Z,7.50
2022-10-13T23:43:49.573Z,8.73
2022-10-13T23:46:18.507Z,7.43
2022-10-13T23:48:46.066Z,7.90
2022-10-13T23:51:14.935Z,8.37
2022-10-13T23:53:43.036Z,7.80
2022-10-13T23:56:11.657Z,8.40
2022-10-13T23:58:39.597Z,7.90
